Etusivu
METAR-TAF:

METAR-TAF

Lentoasemat :

Magic Valley Regional Airport (Joslin Field)

Twin Falls, Idaho, Yhdysvallat

Leveyspiiri: 42-28-43N, Pituuspiiri: 114-28-34W, korkeus merenpinnasta: 1265 m

Tämänhetkinen sää

Tämä raportti tehtiin 25 minuuttia sitten, kello 21.53 UTC
Tuuli 18 kn lännestä/luoteesta puuskistuen 23 kn:hen
Lämpötila 11°C
Kosteus 40%
Ilmanpaine 1025 hPa
Näkyvyys: 16.1 km
selkeää

METAR: KTWF 162153Z 30018G23KT 10SM CLR 11/M02 A3027 RMK AO2 SLP232 T01111022

Aika: 15:18 (22:18 UTC)

Sääennuste

Tämä raportti tehtiin 4 tuntia ja 48 minuuttia sitten, kello 17.30 UTC
Ennuste voimassa 16. päivästä klo 18 UTC - 17. päivään klo 18 UTC
Tuuli 15 kn lännestä puuskistuen 25 kn:hen
Näkyvyys: 10 km
selkeää
From 17. päivästä klo 0300 UTC
Tuuli 10 kn etelästä/lounaasta
Näkyvyys: 10 km
Hajonneita pilviä 20000 ft:n korkeudessa

TAF: KTWF 161730Z 1618/1718 27015G25KT P6SM SKC FM170300 21010KT P6SM BKN200

Säähavainnot ja -ennusteet yli 4000 lentoasemalta (METAR- ja TAF-raportit).

Käytössä olevat sääasemat on merkitty karttaan keltaisilla ja punaisilla pisteillä.

Aseta hiiri pisteen päälle nähdäksesi sääaseman nimen.

Klikkaa sitten nähdäksesi säähavainnot ja -ennusteet.

Kartan vaihtaminen: klikkaa mustalla rastilla varustettuja vihreitä pisteitä, niin voit zoomata sisään; viivalla varustettua vihreää pistettä, niin voit zoomata ulos tai vihreitä nuolia, niin pääset viereisille kartoille.


METAR-TAF: